sensor_id;sensor_type;location;lat;lon;timestamp;P1;durP1;ratioP1;P2;durP2;ratioP2
61413;SDS011;47279;52.426;10.488;2022-11-25T00:01:26;3.25;;;2.95;;
61413;SDS011;47279;52.426;10.488;2022-11-25T00:03:53;3.60;;;3.13;;
61413;SDS011;47279;52.426;10.488;2022-11-25T00:06:20;3.58;;;3.13;;
61413;SDS011;47279;52.426;10.488;2022-11-25T00:08:47;4.03;;;3.33;;
61413;SDS011;47279;52.426;10.488;2022-11-25T00:11:14;3.65;;;3.20;;
61413;SDS011;47279;52.426;10.488;2022-11-25T00:13:40;3.45;;;3.15;;
61413;SDS011;47279;52.426;10.488;2022-11-25T00:16:10;3.30;;;3.00;;
61413;SDS011;47279;52.426;10.488;2022-11-25T00:18:36;3.58;;;2.80;;
61413;SDS011;47279;52.426;10.488;2022-11-25T00:21:06;3.30;;;3.00;;
61413;SDS011;47279;52.426;10.488;2022-11-25T00:23:32;3.08;;;2.78;;
61413;SDS011;47279;52.426;10.488;2022-11-25T00:26:04;3.35;;;2.88;;
61413;SDS011;47279;52.426;10.488;2022-11-25T00:28:30;3.70;;;3.35;;
61413;SDS011;47279;52.426;10.488;2022-11-25T00:31:02;3.60;;;3.30;;
61413;SDS011;47279;52.426;10.488;2022-11-25T00:33:28;3.45;;;3.15;;
61413;SDS011;47279;52.426;10.488;2022-11-25T00:35:54;3.15;;;2.70;;
61413;SDS011;47279;52.426;10.488;2022-11-25T00:38:20;2.80;;;2.60;;
61413;SDS011;47279;52.426;10.488;2022-11-25T00:40:46;3.20;;;2.90;;
61413;SDS011;47279;52.426;10.488;2022-11-25T00:43:36;3.00;;;2.72;;
61413;SDS011;47279;52.426;10.488;2022-11-25T00:46:21;2.80;;;2.50;;
61413;SDS011;47279;52.426;10.488;2022-11-25T00:48:47;2.88;;;2.67;;
61413;SDS011;47279;52.426;10.488;2022-11-25T00:51:13;3.33;;;3.03;;
61413;SDS011;47279;52.426;10.488;2022-11-25T00:53:39;3.05;;;2.75;;
61413;SDS011;47279;52.426;10.488;2022-11-25T00:56:05;3.33;;;2.72;;
61413;SDS011;47279;52.426;10.488;2022-11-25T00:58:37;2.97;;;2.78;;
61413;SDS011;47279;52.426;10.488;2022-11-25T01:01:03;2.80;;;2.58;;
61413;SDS011;47279;52.426;10.488;2022-11-25T01:03:29;2.97;;;2.67;;
61413;SDS011;47279;52.426;10.488;2022-11-25T01:05:59;3.17;;;2.42;;
61413;SDS011;47279;52.426;10.488;2022-11-25T01:08:25;3.47;;;2.80;;
61413;SDS011;47279;52.426;10.488;2022-11-25T01:11:01;2.90;;;2.70;;
61413;SDS011;47279;52.426;10.488;2022-11-25T01:13:27;3.20;;;2.70;;
61413;SDS011;47279;52.426;10.488;2022-11-25T01:15:53;2.75;;;2.55;;
61413;SDS011;47279;52.426;10.488;2022-11-25T01:18:19;2.60;;;2.40;;
61413;SDS011;47279;52.426;10.488;2022-11-25T01:20:45;3.58;;;2.80;;
61413;SDS011;47279;52.426;10.488;2022-11-25T01:23:11;2.67;;;2.40;;
61413;SDS011;47279;52.426;10.488;2022-11-25T01:25:38;3.45;;;2.65;;
61413;SDS011;47279;52.426;10.488;2022-11-25T01:28:04;3.13;;;2.80;;
61413;SDS011;47279;52.426;10.488;2022-11-25T01:30:30;3.30;;;3.00;;
61413;SDS011;47279;52.426;10.488;2022-11-25T01:32:56;3.00;;;2.80;;
61413;SDS011;47279;52.426;10.488;2022-11-25T01:35:22;2.90;;;2.70;;
61413;SDS011;47279;52.426;10.488;2022-11-25T01:37:48;2.90;;;2.70;;
61413;SDS011;47279;52.426;10.488;2022-11-25T01:40:14;2.78;;;2.58;;
61413;SDS011;47279;52.426;10.488;2022-11-25T01:42:50;3.58;;;2.65;;
61413;SDS011;47279;52.426;10.488;2022-11-25T01:45:27;3.22;;;2.80;;
61413;SDS011;47279;52.426;10.488;2022-11-25T01:47:57;2.72;;;2.53;;
61413;SDS011;47279;52.426;10.488;2022-11-25T01:50:25;2.95;;;2.55;;
61413;SDS011;47279;52.426;10.488;2022-11-25T01:52:52;2.65;;;2.45;;
61413;SDS011;47279;52.426;10.488;2022-11-25T01:55:23;2.97;;;2.67;;
61413;SDS011;47279;52.426;10.488;2022-11-25T02:00:17;2.80;;;2.60;;
61413;SDS011;47279;52.426;10.488;2022-11-25T02:02:44;2.72;;;2.40;;
61413;SDS011;47279;52.426;10.488;2022-11-25T02:05:12;2.53;;;2.20;;
61413;SDS011;47279;52.426;10.488;2022-11-25T02:07:40;3.08;;;2.45;;
61413;SDS011;47279;52.426;10.488;2022-11-25T02:10:08;2.40;;;2.20;;
61413;SDS011;47279;52.426;10.488;2022-11-25T02:12:36;2.63;;;2.40;;
61413;SDS011;47279;52.426;10.488;2022-11-25T02:15:03;2.28;;;2.05;;
61413;SDS011;47279;52.426;10.488;2022-11-25T02:17:29;2.70;;;2.50;;
61413;SDS011;47279;52.426;10.488;2022-11-25T02:20:00;2.83;;;2.20;;
61413;SDS011;47279;52.426;10.488;2022-11-25T02:24:57;3.03;;;2.35;;
61413;SDS011;47279;52.426;10.488;2022-11-25T02:29:52;2.60;;;2.30;;
61413;SDS011;47279;52.426;10.488;2022-11-25T02:32:22;2.42;;;2.22;;
61413;SDS011;47279;52.426;10.488;2022-11-25T02:34:48;2.67;;;2.35;;
61413;SDS011;47279;52.426;10.488;2022-11-25T02:37:14;2.58;;;2.35;;
61413;SDS011;47279;52.426;10.488;2022-11-25T02:39:42;2.42;;;2.17;;
61413;SDS011;47279;52.426;10.488;2022-11-25T02:42:08;2.42;;;2.13;;
61413;SDS011;47279;52.426;10.488;2022-11-25T02:44:34;2.17;;;1.98;;
61413;SDS011;47279;52.426;10.488;2022-11-25T02:47:00;2.55;;;2.00;;
61413;SDS011;47279;52.426;10.488;2022-11-25T02:49:26;3.30;;;2.28;;
61413;SDS011;47279;52.426;10.488;2022-11-25T02:51:52;2.92;;;2.10;;
61413;SDS011;47279;52.426;10.488;2022-11-25T02:54:18;2.10;;;1.90;;
61413;SDS011;47279;52.426;10.488;2022-11-25T02:56:44;2.00;;;1.88;;
61413;SDS011;47279;52.426;10.488;2022-11-25T02:59:10;2.10;;;1.90;;
61413;SDS011;47279;52.426;10.488;2022-11-25T03:01:36;2.47;;;2.10;;
61413;SDS011;47279;52.426;10.488;2022-11-25T03:04:02;2.95;;;2.00;;
61413;SDS011;47279;52.426;10.488;2022-11-25T03:06:29;2.08;;;1.88;;
61413;SDS011;47279;52.426;10.488;2022-11-25T03:08:55;2.45;;;1.80;;
61413;SDS011;47279;52.426;10.488;2022-11-25T03:11:21;1.95;;;1.75;;
61413;SDS011;47279;52.426;10.488;2022-11-25T03:14:07;1.80;;;1.70;;
61413;SDS011;47279;52.426;10.488;2022-11-25T03:16:33;2.30;;;1.80;;
61413;SDS011;47279;52.426;10.488;2022-11-25T03:18:59;2.45;;;2.00;;
61413;SDS011;47279;52.426;10.488;2022-11-25T03:21:25;2.28;;;1.77;;
61413;SDS011;47279;52.426;10.488;2022-11-25T03:23:51;3.03;;;1.98;;
61413;SDS011;47279;52.426;10.488;2022-11-25T03:26:17;2.50;;;1.90;;
61413;SDS011;47279;52.426;10.488;2022-11-25T03:28:43;2.15;;;1.95;;
61413;SDS011;47279;52.426;10.488;2022-11-25T03:31:09;2.60;;;1.98;;
61413;SDS011;47279;52.426;10.488;2022-11-25T03:33:35;2.28;;;1.85;;
61413;SDS011;47279;52.426;10.488;2022-11-25T03:36:01;2.85;;;1.90;;
61413;SDS011;47279;52.426;10.488;2022-11-25T03:38:27;2.30;;;2.10;;
61413;SDS011;47279;52.426;10.488;2022-11-25T03:40:53;1.98;;;1.80;;
61413;SDS011;47279;52.426;10.488;2022-11-25T03:43:19;2.28;;;1.50;;
61413;SDS011;47279;52.426;10.488;2022-11-25T03:45:48;2.03;;;1.80;;
61413;SDS011;47279;52.426;10.488;2022-11-25T03:48:14;2.83;;;1.92;;
61413;SDS011;47279;52.426;10.488;2022-11-25T03:50:40;2.50;;;1.80;;
61413;SDS011;47279;52.426;10.488;2022-11-25T03:53:06;3.03;;;1.83;;
61413;SDS011;47279;52.426;10.488;2022-11-25T03:55:32;2.50;;;1.90;;
61413;SDS011;47279;52.426;10.488;2022-11-25T03:57:58;2.53;;;1.73;;
61413;SDS011;47279;52.426;10.488;2022-11-25T04:00:24;1.92;;;1.70;;
61413;SDS011;47279;52.426;10.488;2022-11-25T04:02:50;1.75;;;1.63;;
61413;SDS011;47279;52.426;10.488;2022-11-25T04:05:16;2.35;;;1.50;;
61413;SDS011;47279;52.426;10.488;2022-11-25T04:07:42;2.45;;;1.70;;
61413;SDS011;47279;52.426;10.488;2022-11-25T04:10:08;1.75;;;1.58;;
61413;SDS011;47279;52.426;10.488;2022-11-25T04:12:34;2.20;;;1.60;;
61413;SDS011;47279;52.426;10.488;2022-11-25T04:15:14;2.40;;;1.80;;
61413;SDS011;47279;52.426;10.488;2022-11-25T04:17:40;1.70;;;1.50;;
61413;SDS011;47279;52.426;10.488;2022-11-25T04:20:06;2.30;;;1.65;;
61413;SDS011;47279;52.426;10.488;2022-11-25T04:22:33;2.00;;;1.70;;
61413;SDS011;47279;52.426;10.488;2022-11-25T04:24:59;2.28;;;1.50;;
61413;SDS011;47279;52.426;10.488;2022-11-25T04:27:25;3.03;;;1.77;;
61413;SDS011;47279;52.426;10.488;2022-11-25T04:29:51;1.73;;;1.48;;
61413;SDS011;47279;52.426;10.488;2022-11-25T04:32:17;2.47;;;1.95;;
61413;SDS011;47279;52.426;10.488;2022-11-25T04:34:43;2.10;;;1.90;;
61413;SDS011;47279;52.426;10.488;2022-11-25T04:37:09;2.38;;;1.52;;
61413;SDS011;47279;52.426;10.488;2022-11-25T04:39:35;3.08;;;1.70;;
61413;SDS011;47279;52.426;10.488;2022-11-25T04:42:01;1.83;;;1.63;;
61413;SDS011;47279;52.426;10.488;2022-11-25T04:44:46;1.67;;;1.58;;
61413;SDS011;47279;52.426;10.488;2022-11-25T04:47:11;2.75;;;1.50;;
61413;SDS011;47279;52.426;10.488;2022-11-25T04:49:37;2.42;;;1.65;;
61413;SDS011;47279;52.426;10.488;2022-11-25T04:52:03;1.75;;;1.42;;
61413;SDS011;47279;52.426;10.488;2022-11-25T04:54:29;2.67;;;1.60;;
61413;SDS011;47279;52.426;10.488;2022-11-25T04:56:55;2.75;;;1.70;;
61413;SDS011;47279;52.426;10.488;2022-11-25T04:59:21;1.60;;;1.50;;
61413;SDS011;47279;52.426;10.488;2022-11-25T05:02:11;3.25;;;1.83;;
61413;SDS011;47279;52.426;10.488;2022-11-25T05:04:38;2.03;;;1.50;;
61413;SDS011;47279;52.426;10.488;2022-11-25T05:07:04;2.03;;;1.40;;
61413;SDS011;47279;52.426;10.488;2022-11-25T05:09:30;2.60;;;1.63;;
61413;SDS011;47279;52.426;10.488;2022-11-25T05:11:56;2.08;;;1.77;;
61413;SDS011;47279;52.426;10.488;2022-11-25T05:14:22;1.50;;;1.40;;
61413;SDS011;47279;52.426;10.488;2022-11-25T05:16:49;1.95;;;1.50;;
61413;SDS011;47279;52.426;10.488;2022-11-25T05:19:15;1.65;;;1.40;;
61413;SDS011;47279;52.426;10.488;2022-11-25T05:21:41;1.48;;;1.25;;
61413;SDS011;47279;52.426;10.488;2022-11-25T05:24:07;2.38;;;1.38;;
61413;SDS011;47279;52.426;10.488;2022-11-25T05:26:33;2.22;;;1.30;;
61413;SDS011;47279;52.426;10.488;2022-11-25T05:28:59;2.75;;;1.60;;
61413;SDS011;47279;52.426;10.488;2022-11-25T05:31:25;2.20;;;1.42;;
61413;SDS011;47279;52.426;10.488;2022-11-25T05:33:51;2.15;;;1.40;;
61413;SDS011;47279;52.426;10.488;2022-11-25T05:36:17;1.60;;;1.50;;
61413;SDS011;47279;52.426;10.488;2022-11-25T05:38:43;1.75;;;1.50;;
61413;SDS011;47279;52.426;10.488;2022-11-25T05:41:09;1.90;;;1.40;;
61413;SDS011;47279;52.426;10.488;2022-11-25T05:43:35;1.60;;;1.50;;
61413;SDS011;47279;52.426;10.488;2022-11-25T05:46:07;2.10;;;1.90;;
61413;SDS011;47279;52.426;10.488;2022-11-25T05:48:33;2.33;;;1.70;;
61413;SDS011;47279;52.426;10.488;2022-11-25T05:51:00;1.75;;;1.50;;
61413;SDS011;47279;52.426;10.488;2022-11-25T05:53:26;2.10;;;1.48;;
61413;SDS011;47279;52.426;10.488;2022-11-25T05:55:56;2.45;;;1.60;;
61413;SDS011;47279;52.426;10.488;2022-11-25T05:58:22;1.83;;;1.65;;
61413;SDS011;47279;52.426;10.488;2022-11-25T06:00:48;1.90;;;1.42;;
61413;SDS011;47279;52.426;10.488;2022-11-25T06:03:15;1.60;;;1.50;;
61413;SDS011;47279;52.426;10.488;2022-11-25T06:05:41;2.88;;;1.67;;
61413;SDS011;47279;52.426;10.488;2022-11-25T06:08:07;3.05;;;1.50;;
61413;SDS011;47279;52.426;10.488;2022-11-25T06:10:33;2.40;;;1.70;;
61413;SDS011;47279;52.426;10.488;2022-11-25T06:12:59;2.70;;;1.60;;
61413;SDS011;47279;52.426;10.488;2022-11-25T06:15:25;1.60;;;1.30;;
61413;SDS011;47279;52.426;10.488;2022-11-25T06:17:51;2.00;;;1.40;;
61413;SDS011;47279;52.426;10.488;2022-11-25T06:20:17;2.05;;;1.40;;
61413;SDS011;47279;52.426;10.488;2022-11-25T06:22:43;2.33;;;1.67;;
61413;SDS011;47279;52.426;10.488;2022-11-25T06:25:09;1.83;;;1.42;;
61413;SDS011;47279;52.426;10.488;2022-11-25T06:27:35;3.40;;;1.85;;
61413;SDS011;47279;52.426;10.488;2022-11-25T06:30:01;2.60;;;1.65;;
61413;SDS011;47279;52.426;10.488;2022-11-25T06:32:27;2.25;;;1.60;;
61413;SDS011;47279;52.426;10.488;2022-11-25T06:34:53;2.28;;;1.40;;
61413;SDS011;47279;52.426;10.488;2022-11-25T06:37:19;1.77;;;1.58;;
61413;SDS011;47279;52.426;10.488;2022-11-25T06:39:45;2.80;;;1.67;;
61413;SDS011;47279;52.426;10.488;2022-11-25T06:42:11;2.70;;;1.50;;
61413;SDS011;47279;52.426;10.488;2022-11-25T06:44:37;1.67;;;1.58;;
61413;SDS011;47279;52.426;10.488;2022-11-25T06:47:03;1.83;;;1.33;;
61413;SDS011;47279;52.426;10.488;2022-11-25T06:49:29;1.35;;;1.25;;
61413;SDS011;47279;52.426;10.488;2022-11-25T06:51:55;2.53;;;1.50;;
61413;SDS011;47279;52.426;10.488;2022-11-25T06:54:21;2.00;;;1.40;;
61413;SDS011;47279;52.426;10.488;2022-11-25T06:56:47;2.67;;;1.75;;
61413;SDS011;47279;52.426;10.488;2022-11-25T06:59:16;2.83;;;1.80;;
61413;SDS011;47279;52.426;10.488;2022-11-25T07:01:42;3.17;;;1.60;;
61413;SDS011;47279;52.426;10.488;2022-11-25T07:04:08;2.08;;;1.60;;
61413;SDS011;47279;52.426;10.488;2022-11-25T07:06:34;1.60;;;1.50;;
61413;SDS011;47279;52.426;10.488;2022-11-25T07:09:00;2.22;;;1.67;;
61413;SDS011;47279;52.426;10.488;2022-11-25T07:11:27;1.70;;;1.30;;
61413;SDS011;47279;52.426;10.488;2022-11-25T07:13:58;2.15;;;1.60;;
61413;SDS011;47279;52.426;10.488;2022-11-25T07:16:24;1.58;;;1.30;;
61413;SDS011;47279;52.426;10.488;2022-11-25T07:18:51;3.25;;;1.73;;
61413;SDS011;47279;52.426;10.488;2022-11-25T07:21:18;3.13;;;1.77;;
61413;SDS011;47279;52.426;10.488;2022-11-25T07:23:44;1.90;;;1.40;;
61413;SDS011;47279;52.426;10.488;2022-11-25T07:26:15;2.88;;;1.77;;
61413;SDS011;47279;52.426;10.488;2022-11-25T07:28:41;2.50;;;1.83;;
61413;SDS011;47279;52.426;10.488;2022-11-25T07:31:08;1.95;;;1.60;;
61413;SDS011;47279;52.426;10.488;2022-11-25T07:33:35;1.48;;;1.30;;
61413;SDS011;47279;52.426;10.488;2022-11-25T07:36:04;2.58;;;1.60;;
61413;SDS011;47279;52.426;10.488;2022-11-25T07:38:31;1.95;;;1.40;;
61413;SDS011;47279;52.426;10.488;2022-11-25T07:41:07;1.48;;;1.20;;
61413;SDS011;47279;52.426;10.488;2022-11-25T07:43:33;2.08;;;1.50;;
61413;SDS011;47279;52.426;10.488;2022-11-25T07:48:34;2.13;;;1.35;;
61413;SDS011;47279;52.426;10.488;2022-11-25T07:51:00;2.17;;;1.60;;
61413;SDS011;47279;52.426;10.488;2022-11-25T07:53:26;3.35;;;1.50;;
61413;SDS011;47279;52.426;10.488;2022-11-25T07:55:52;1.75;;;1.65;;
61413;SDS011;47279;52.426;10.488;2022-11-25T07:58:18;1.77;;;1.30;;
61413;SDS011;47279;52.426;10.488;2022-11-25T08:00:44;2.58;;;1.50;;
61413;SDS011;47279;52.426;10.488;2022-11-25T08:03:10;2.33;;;1.50;;
61413;SDS011;47279;52.426;10.488;2022-11-25T08:05:36;1.38;;;1.27;;
61413;SDS011;47279;52.426;10.488;2022-11-25T08:08:02;2.60;;;1.80;;
61413;SDS011;47279;52.426;10.488;2022-11-25T08:10:28;1.67;;;1.58;;
61413;SDS011;47279;52.426;10.488;2022-11-25T08:12:54;1.90;;;1.50;;
61413;SDS011;47279;52.426;10.488;2022-11-25T08:15:20;2.42;;;1.50;;
61413;SDS011;47279;52.426;10.488;2022-11-25T08:17:46;2.67;;;1.45;;
61413;SDS011;47279;52.426;10.488;2022-11-25T08:20:14;3.45;;;1.60;;
61413;SDS011;47279;52.426;10.488;2022-11-25T08:22:40;1.77;;;1.40;;
61413;SDS011;47279;52.426;10.488;2022-11-25T08:25:06;2.25;;;1.80;;
61413;SDS011;47279;52.426;10.488;2022-11-25T08:27:32;3.17;;;1.70;;
61413;SDS011;47279;52.426;10.488;2022-11-25T08:29:58;1.73;;;1.50;;
61413;SDS011;47279;52.426;10.488;2022-11-25T08:32:24;2.10;;;1.60;;
61413;SDS011;47279;52.426;10.488;2022-11-25T10:21:54;1.88;;;1.50;;
61413;SDS011;47279;52.426;10.488;2022-11-25T10:24:20;2.00;;;1.70;;
61413;SDS011;47279;52.426;10.488;2022-11-25T10:27:06;1.90;;;1.48;;
61413;SDS011;47279;52.426;10.488;2022-11-25T10:29:36;2.38;;;1.90;;
61413;SDS011;47279;52.426;10.488;2022-11-25T10:32:20;1.70;;;1.58;;
61413;SDS011;47279;52.426;10.488;2022-11-25T10:34:53;1.67;;;1.50;;
61413;SDS011;47279;52.426;10.488;2022-11-25T10:37:25;1.95;;;1.55;;
61413;SDS011;47279;52.426;10.488;2022-11-25T10:39:51;2.10;;;1.73;;
61413;SDS011;47279;52.426;10.488;2022-11-25T10:42:18;2.42;;;1.77;;
61413;SDS011;47279;52.426;10.488;2022-11-25T10:44:45;1.88;;;1.48;;
61413;SDS011;47279;52.426;10.488;2022-11-25T10:47:16;2.25;;;1.45;;
61413;SDS011;47279;52.426;10.488;2022-11-25T10:49:58;2.45;;;1.83;;
61413;SDS011;47279;52.426;10.488;2022-11-25T10:52:26;2.55;;;1.65;;
61413;SDS011;47279;52.426;10.488;2022-11-25T10:54:54;2.50;;;1.83;;
61413;SDS011;47279;52.426;10.488;2022-11-25T10:57:20;2.95;;;1.75;;
61413;SDS011;47279;52.426;10.488;2022-11-25T10:59:58;2.53;;;1.80;;
61413;SDS011;47279;52.426;10.488;2022-11-25T11:02:28;3.65;;;1.63;;
61413;SDS011;47279;52.426;10.488;2022-11-25T11:04:56;2.42;;;2.10;;
61413;SDS011;47279;52.426;10.488;2022-11-25T11:07:23;1.52;;;1.42;;
61413;SDS011;47279;52.426;10.488;2022-11-25T11:09:49;2.17;;;1.70;;
61413;SDS011;47279;52.426;10.488;2022-11-25T11:12:21;1.85;;;1.60;;
61413;SDS011;47279;52.426;10.488;2022-11-25T11:14:47;1.92;;;1.67;;
61413;SDS011;47279;52.426;10.488;2022-11-25T11:19:58;1.95;;;1.65;;
61413;SDS011;47279;52.426;10.488;2022-11-25T11:22:24;2.10;;;1.60;;
61413;SDS011;47279;52.426;10.488;2022-11-25T11:25:03;1.60;;;1.38;;
61413;SDS011;47279;52.426;10.488;2022-11-25T11:27:29;1.90;;;1.40;;
61413;SDS011;47279;52.426;10.488;2022-11-25T11:30:07;2.28;;;1.42;;
61413;SDS011;47279;52.426;10.488;2022-11-25T11:32:34;1.92;;;1.60;;
61413;SDS011;47279;52.426;10.488;2022-11-25T11:35:20;2.22;;;1.58;;
61413;SDS011;47279;52.426;10.488;2022-11-25T11:37:51;1.83;;;1.63;;
61413;SDS011;47279;52.426;10.488;2022-11-25T11:43:00;3.88;;;2.05;;
61413;SDS011;47279;52.426;10.488;2022-11-25T11:48:26;1.85;;;1.65;;
61413;SDS011;47279;52.426;10.488;2022-11-25T11:56:17;2.30;;;1.65;;
61413;SDS011;47279;52.426;10.488;2022-11-25T11:58:50;2.00;;;1.75;;
61413;SDS011;47279;52.426;10.488;2022-11-25T12:06:19;2.03;;;1.38;;
61413;SDS011;47279;52.426;10.488;2022-11-25T12:08:51;1.83;;;1.65;;
61413;SDS011;47279;52.426;10.488;2022-11-25T12:11:24;2.28;;;1.48;;
61413;SDS011;47279;52.426;10.488;2022-11-25T12:13:57;2.17;;;1.58;;
61413;SDS011;47279;52.426;10.488;2022-11-25T12:16:34;2.20;;;1.42;;
61413;SDS011;47279;52.426;10.488;2022-11-25T12:26:57;2.08;;;1.63;;
61413;SDS011;47279;52.426;10.488;2022-11-25T12:34:42;3.25;;;1.60;;
61413;SDS011;47279;52.426;10.488;2022-11-25T12:37:15;1.92;;;1.67;;
61413;SDS011;47279;52.426;10.488;2022-11-25T12:39:52;3.85;;;2.45;;
61413;SDS011;47279;52.426;10.488;2022-11-25T12:42:21;3.50;;;1.95;;
61413;SDS011;47279;52.426;10.488;2022-11-25T12:45:06;3.78;;;2.00;;
61413;SDS011;47279;52.426;10.488;2022-11-25T12:47:34;2.88;;;1.60;;
61413;SDS011;47279;52.426;10.488;2022-11-25T12:50:00;3.33;;;1.60;;
61413;SDS011;47279;52.426;10.488;2022-11-25T12:52:47;3.45;;;1.60;;
61413;SDS011;47279;52.426;10.488;2022-11-25T12:55:18;2.92;;;1.80;;
61413;SDS011;47279;52.426;10.488;2022-11-25T13:00:33;4.15;;;1.70;;
61413;SDS011;47279;52.426;10.488;2022-11-25T13:08:14;2.50;;;1.60;;
61413;SDS011;47279;52.426;10.488;2022-11-25T13:13:31;3.22;;;1.98;;
61413;SDS011;47279;52.426;10.488;2022-11-25T13:16:02;2.38;;;1.65;;
61413;SDS011;47279;52.426;10.488;2022-11-25T13:18:29;3.33;;;1.98;;
61413;SDS011;47279;52.426;10.488;2022-11-25T13:21:04;3.17;;;1.88;;
61413;SDS011;47279;52.426;10.488;2022-11-25T13:23:47;2.42;;;1.70;;
61413;SDS011;47279;52.426;10.488;2022-11-25T13:28:59;3.03;;;1.70;;
61413;SDS011;47279;52.426;10.488;2022-11-25T13:31:29;2.35;;;1.50;;
61413;SDS011;47279;52.426;10.488;2022-11-25T13:39:16;2.60;;;1.85;;
61413;SDS011;47279;52.426;10.488;2022-11-25T13:41:43;2.08;;;1.50;;
61413;SDS011;47279;52.426;10.488;2022-11-25T13:44:24;2.97;;;1.60;;
61413;SDS011;47279;52.426;10.488;2022-11-25T13:46:53;2.20;;;1.38;;
61413;SDS011;47279;52.426;10.488;2022-11-25T13:49:21;3.45;;;1.80;;
61413;SDS011;47279;52.426;10.488;2022-11-25T13:51:49;2.63;;;1.63;;
61413;SDS011;47279;52.426;10.488;2022-11-25T13:54:16;2.65;;;1.83;;
61413;SDS011;47279;52.426;10.488;2022-11-25T13:56:43;3.75;;;1.80;;
61413;SDS011;47279;52.426;10.488;2022-11-25T13:59:36;2.90;;;1.65;;
61413;SDS011;47279;52.426;10.488;2022-11-25T14:10:02;3.28;;;1.60;;
61413;SDS011;47279;52.426;10.488;2022-11-25T14:12:45;2.58;;;1.58;;
61413;SDS011;47279;52.426;10.488;2022-11-25T14:20:45;3.28;;;1.55;;
61413;SDS011;47279;52.426;10.488;2022-11-25T14:26:02;4.72;;;1.70;;
61413;SDS011;47279;52.426;10.488;2022-11-25T14:28:30;2.33;;;1.60;;
61413;SDS011;47279;52.426;10.488;2022-11-25T14:30:59;1.73;;;1.45;;
61413;SDS011;47279;52.426;10.488;2022-11-25T14:33:42;3.10;;;1.65;;
61413;SDS011;47279;52.426;10.488;2022-11-25T14:36:11;2.40;;;1.58;;
61413;SDS011;47279;52.426;10.488;2022-11-25T14:38:49;2.72;;;1.52;;
61413;SDS011;47279;52.426;10.488;2022-11-25T14:44:05;2.40;;;1.45;;
61413;SDS011;47279;52.426;10.488;2022-11-25T14:46:32;3.05;;;1.40;;
61413;SDS011;47279;52.426;10.488;2022-11-25T14:48:59;2.13;;;1.40;;
61413;SDS011;47279;52.426;10.488;2022-11-25T14:51:26;1.88;;;1.48;;
61413;SDS011;47279;52.426;10.488;2022-11-25T14:53:52;2.17;;;1.65;;
61413;SDS011;47279;52.426;10.488;2022-11-25T14:56:26;2.40;;;1.67;;
61413;SDS011;47279;52.426;10.488;2022-11-25T14:58:53;2.13;;;1.50;;
61413;SDS011;47279;52.426;10.488;2022-11-25T15:01:20;2.42;;;1.50;;
61413;SDS011;47279;52.426;10.488;2022-11-25T15:03:47;3.20;;;1.45;;
61413;SDS011;47279;52.426;10.488;2022-11-25T15:06:14;1.52;;;1.30;;
61413;SDS011;47279;52.426;10.488;2022-11-25T15:08:44;3.25;;;1.60;;
61413;SDS011;47279;52.426;10.488;2022-11-25T15:11:12;2.03;;;1.20;;
61413;SDS011;47279;52.426;10.488;2022-11-25T15:13:40;2.95;;;1.50;;
61413;SDS011;47279;52.426;10.488;2022-11-25T15:16:15;2.55;;;1.63;;
61413;SDS011;47279;52.426;10.488;2022-11-25T15:18:44;3.08;;;1.50;;
61413;SDS011;47279;52.426;10.488;2022-11-25T15:23:38;2.85;;;1.50;;
61413;SDS011;47279;52.426;10.488;2022-11-25T15:26:13;4.22;;;1.67;;
61413;SDS011;47279;52.426;10.488;2022-11-25T15:28:40;2.83;;;1.80;;
61413;SDS011;47279;52.426;10.488;2022-11-25T15:31:07;2.95;;;1.58;;
61413;SDS011;47279;52.426;10.488;2022-11-25T15:33:33;3.67;;;1.85;;
61413;SDS011;47279;52.426;10.488;2022-11-25T15:36:00;3.00;;;1.80;;
61413;SDS011;47279;52.426;10.488;2022-11-25T15:38:42;3.35;;;1.30;;
61413;SDS011;47279;52.426;10.488;2022-11-25T15:41:13;5.30;;;1.73;;
61413;SDS011;47279;52.426;10.488;2022-11-25T15:43:42;3.38;;;1.60;;
61413;SDS011;47279;52.426;10.488;2022-11-25T15:46:09;3.35;;;1.60;;
61413;SDS011;47279;52.426;10.488;2022-11-25T15:48:42;2.88;;;1.58;;
61413;SDS011;47279;52.426;10.488;2022-11-25T15:51:19;2.35;;;1.60;;
61413;SDS011;47279;52.426;10.488;2022-11-25T15:53:54;3.17;;;1.73;;
61413;SDS011;47279;52.426;10.488;2022-11-25T15:56:23;3.17;;;1.98;;
61413;SDS011;47279;52.426;10.488;2022-11-25T15:58:50;5.28;;;2.08;;
61413;SDS011;47279;52.426;10.488;2022-11-25T16:03:44;4.13;;;1.92;;
61413;SDS011;47279;52.426;10.488;2022-11-25T16:06:26;5.43;;;1.92;;
61413;SDS011;47279;52.426;10.488;2022-11-25T16:08:56;3.58;;;1.67;;
61413;SDS011;47279;52.426;10.488;2022-11-25T16:11:24;9.73;;;2.60;;
61413;SDS011;47279;52.426;10.488;2022-11-25T16:13:53;10.25;;;2.85;;
61413;SDS011;47279;52.426;10.488;2022-11-25T16:16:24;7.05;;;2.67;;
61413;SDS011;47279;52.426;10.488;2022-11-25T16:18:54;8.43;;;2.50;;
61413;SDS011;47279;52.426;10.488;2022-11-25T16:21:22;4.63;;;2.45;;
61413;SDS011;47279;52.426;10.488;2022-11-25T16:24:12;9.50;;;2.40;;
61413;SDS011;47279;52.426;10.488;2022-11-25T16:29:17;7.78;;;2.63;;
61413;SDS011;47279;52.426;10.488;2022-11-25T16:31:43;5.53;;;2.25;;
61413;SDS011;47279;52.426;10.488;2022-11-25T16:34:13;5.93;;;1.90;;
61413;SDS011;47279;52.426;10.488;2022-11-25T16:36:40;6.40;;;2.00;;
61413;SDS011;47279;52.426;10.488;2022-11-25T16:39:06;5.80;;;2.00;;
61413;SDS011;47279;52.426;10.488;2022-11-25T16:41:32;2.67;;;1.90;;
61413;SDS011;47279;52.426;10.488;2022-11-25T16:43:58;5.78;;;1.98;;
61413;SDS011;47279;52.426;10.488;2022-11-25T16:46:24;5.13;;;2.33;;
61413;SDS011;47279;52.426;10.488;2022-11-25T16:48:50;4.22;;;2.05;;
61413;SDS011;47279;52.426;10.488;2022-11-25T16:51:17;4.43;;;2.13;;
61413;SDS011;47279;52.426;10.488;2022-11-25T16:53:44;5.97;;;2.28;;
61413;SDS011;47279;52.426;10.488;2022-11-25T16:56:11;3.47;;;2.15;;
61413;SDS011;47279;52.426;10.488;2022-11-25T16:58:39;4.07;;;1.92;;
61413;SDS011;47279;52.426;10.488;2022-11-25T17:01:08;5.10;;;2.28;;
61413;SDS011;47279;52.426;10.488;2022-11-25T17:03:35;3.73;;;2.00;;
61413;SDS011;47279;52.426;10.488;2022-11-25T17:06:01;6.07;;;2.22;;
61413;SDS011;47279;52.426;10.488;2022-11-25T17:08:27;2.85;;;1.98;;
61413;SDS011;47279;52.426;10.488;2022-11-25T17:10:53;4.85;;;2.13;;
61413;SDS011;47279;52.426;10.488;2022-11-25T17:13:22;3.90;;;2.15;;
61413;SDS011;47279;52.426;10.488;2022-11-25T17:15:49;4.03;;;2.00;;
61413;SDS011;47279;52.426;10.488;2022-11-25T17:18:15;6.03;;;2.20;;
61413;SDS011;47279;52.426;10.488;2022-11-25T17:20:42;4.13;;;1.92;;
61413;SDS011;47279;52.426;10.488;2022-11-25T17:23:15;3.63;;;2.33;;
61413;SDS011;47279;52.426;10.488;2022-11-25T17:25:42;3.25;;;1.80;;
61413;SDS011;47279;52.426;10.488;2022-11-25T17:28:13;3.92;;;1.98;;
61413;SDS011;47279;52.426;10.488;2022-11-25T17:30:40;4.95;;;2.45;;
61413;SDS011;47279;52.426;10.488;2022-11-25T17:33:08;3.60;;;2.10;;
61413;SDS011;47279;52.426;10.488;2022-11-25T17:35:36;4.57;;;2.08;;
61413;SDS011;47279;52.426;10.488;2022-11-25T17:38:05;2.95;;;1.92;;
61413;SDS011;47279;52.426;10.488;2022-11-25T17:40:34;2.97;;;1.90;;
61413;SDS011;47279;52.426;10.488;2022-11-25T17:43:00;3.85;;;2.38;;
61413;SDS011;47279;52.426;10.488;2022-11-25T17:45:26;3.85;;;2.42;;
61413;SDS011;47279;52.426;10.488;2022-11-25T17:47:53;3.58;;;2.08;;
61413;SDS011;47279;52.426;10.488;2022-11-25T17:50:20;4.72;;;2.03;;
61413;SDS011;47279;52.426;10.488;2022-11-25T17:52:47;5.32;;;2.13;;
61413;SDS011;47279;52.426;10.488;2022-11-25T17:55:13;2.75;;;1.98;;